Time;durP1;ratioP1;P1;durP2;ratioP2;P2;SDS_P1;SDS_P2;PMS_P1;PMS_P2;Temp;Humidity;BMP_temperature;BMP_pressure;BME280_temperature;BME280_humidity;BME280_pressure;Samples;Min_cycle;Max_cycle;Signal;HPM_P1;HPM_P2
2022/03/19 00:01:13;;;;;;;33.45;23.80;;;;;;;;;;4956407;28;20083;-72
2022/03/19 00:03:40;;;;;;;31.23;23.50;;;;;;;;;;4973545;28;20031;-72
2022/03/19 00:06:06;;;;;;;33.88;24.08;;;;;;;;;;4971675;28;20523;-72
2022/03/19 00:08:32;;;;;;;37.33;26.60;;;;;;;;;;4973492;28;20034;-72
2022/03/19 00:11:01;;;;;;;36.47;25.85;;;;;;;;;;4978115;28;20106;-70
2022/03/19 00:13:31;;;;;;;37.97;25.50;;;;;;;;;;4955917;28;20392;-71
2022/03/19 00:15:57;;;;;;;37.92;24.17;;;;;;;;;;4954271;28;20502;-72
2022/03/19 00:18:24;;;;;;;39.00;23.67;;;;;;;;;;4973310;28;20030;-72
2022/03/19 00:21:01;;;;;;;37.47;23.80;;;;;;;;;;4984555;28;20069;-72
2022/03/19 00:23:27;;;;;;;32.53;23.48;;;;;;;;;;4958165;28;20046;-72
2022/03/19 00:25:54;;;;;;;34.67;23.50;;;;;;;;;;4960480;29;20568;-71
2022/03/19 00:28:20;;;;;;;35.58;24.70;;;;;;;;;;4937788;29;20060;-73
2022/03/19 00:30:49;;;;;;;36.10;25.00;;;77.20;2227.20;;;;;;4954368;29;20027;-70
2022/03/19 00:33:21;;;;;;;37.97;25.45;;;77.00;2227.20;;;;;;4966477;28;20089;-71
2022/03/19 00:35:46;;;;;;;35.38;25.17;;;76.90;2227.20;;;;;;4960172;28;20038;-71
2022/03/19 00:38:12;;;;;;;54.65;34.30;;;76.90;2227.20;;;;;;4976895;28;20473;-71
2022/03/19 00:40:38;;;;;;;63.85;39.10;;;52.10;2227.20;;;;;;4982766;28;20162;-71
2022/03/19 00:43:04;;;;;;;48.50;31.52;;;52.10;2227.20;;;;;;4958710;28;20054;-70
2022/03/19 00:45:30;;;;;;;49.05;31.30;;;52.00;2227.20;;;;;;4957914;29;20121;-70
2022/03/19 00:47:58;;;;;;;45.47;30.13;;;51.90;2227.20;;;;;;4959653;29;20059;-72
2022/03/19 00:50:24;;;;;;;48.38;30.90;;;51.90;2227.20;;;;;;4959333;29;20031;-71
2022/03/19 00:52:50;;;;;;;50.67;33.25;;;51.90;2227.20;;;;;;4957857;29;20110;-72
2022/03/19 00:55:16;;;;;;;57.35;38.17;;;51.90;2227.20;;;;;;4958382;28;20027;-72
2022/03/19 00:57:44;;;;;;;48.53;34.38;;;51.80;2227.20;;;;;;4957095;29;20031;-72
2022/03/19 01:00:25;;;;;;;45.83;31.40;;;;;;;;;;4959642;29;20043;-71
2022/03/19 01:02:51;;;;;;;48.50;29.95;;;;;;;;;;4940179;29;20042;-70
2022/03/19 01:05:25;;;;;;;45.53;29.77;;;;;;;;;;4958967;28;20303;-72
2022/03/19 01:07:55;;;;;;;42.72;28.15;;;;;;;;;;4948189;29;20048;-72
2022/03/19 01:10:22;;;;;;;48.58;29.83;;;;;;;;;;4937510;29;20169;-72
2022/03/19 01:12:53;;;;;;;49.60;31.63;;;;;;;;;;4946979;29;20031;-71
2022/03/19 01:15:20;;;;;;;46.88;30.98;;;;;;;;;;4936307;29;20035;-69
2022/03/19 01:17:46;;;;;;;49.70;33.10;;;;;;;;;;4956875;29;20057;-70
2022/03/19 01:20:13;;;;;;;50.75;32.20;;;;;;;;;;4956941;29;20023;-69
2022/03/19 01:22:39;;;;;;;49.45;33.33;;;;;;;;;;4956563;29;20023;-70
2022/03/19 01:25:06;;;;;;;55.78;35.85;;;;;;;;;;4956736;29;20082;-69
2022/03/19 01:27:32;;;;;;;52.72;33.10;;;51.50;2227.20;;;;;;4954946;29;20061;-70
2022/03/19 01:30:02;;;;;;;50.13;32.10;;;;;;;;;;4958910;29;20035;-73
2022/03/19 01:32:31;;;;;;;43.38;29.50;;;;;;;;;;4950955;29;20034;-71
2022/03/19 01:35:12;;;;;;;45.10;29.95;;;;;;;;;;4962504;29;20034;-72
2022/03/19 01:37:46;;;;;;;42.85;29.45;;;;;;;;;;4954497;29;20512;-71
2022/03/19 01:40:13;;;;;;;47.60;31.92;;;;;;;;;;4956726;29;20055;-70
2022/03/19 01:42:44;;;;;;;50.47;33.75;;;;;;;;;;4956509;29;20495;-72
2022/03/19 01:48:24;;;;;;;50.45;33.47;;;;;;;;;;4889167;29;20491;-70
2022/03/19 01:50:50;;;;;;;60.10;37.20;;;;;;;;;;4878148;29;20052;-72
2022/03/19 01:53:16;;;;;;;62.10;37.10;;;;;;;;;;4878574;29;20034;-69
2022/03/19 01:55:42;;;;;;;57.55;37.63;;;;;;;;;;4878346;29;20029;-72
2022/03/19 01:58:09;;;;;;;57.13;37.53;;;;;;;;;;4878614;29;20431;-70
2022/03/19 02:00:37;;;;;;;59.38;37.25;;;;;;;;;;4896538;29;20044;-71
2022/03/19 02:03:03;;;;;;;55.55;36.90;;;;;;;;;;4897136;29;20098;-72
2022/03/19 02:05:29;;;;;;;62.85;39.45;;;;;;;;;;4896667;29;20041;-71
2022/03/19 02:07:59;;;;;;;62.28;40.00;;;;;;;;;;4904738;29;20045;-71
2022/03/19 02:10:26;;;;;;;66.55;39.45;;;;;;;;;;4883505;29;20033;-71
2022/03/19 02:12:55;;;;;;;71.65;41.65;;;;;;;;;;4877960;29;20471;-70
2022/03/19 02:15:21;;;;;;;70.03;44.15;;;;;;;;;;4877958;29;20388;-71
2022/03/19 02:17:52;;;;;;;65.55;41.97;;;;;;;;;;4890300;29;20060;-71
2022/03/19 02:20:18;;;;;;;66.53;41.35;;;;;;;;;;4937365;29;20034;-70
2022/03/19 02:25:42;;;;;;;59.00;36.72;;;;;;;;;;4964586;29;20050;-70
2022/03/19 02:28:09;;;;;;;58.35;36.45;;;;;;;;;;4946911;29;20034;-71
2022/03/19 02:30:38;;;;;;;52.10;34.05;;;;;;;;;;4957383;29;20039;-72
2022/03/19 02:33:04;;;;;;;48.25;31.85;;;;;;;;;;4955689;29;20479;-72
2022/03/19 02:35:30;;;;;;;47.08;32.33;;;;;;;;;;4955287;29;20390;-72
2022/03/19 02:37:57;;;;;;;50.38;32.40;;;;;;;;;;4959837;29;20100;-72
2022/03/19 02:40:24;;;;;;;50.55;32.83;;;;;;;;;;4959728;29;20401;-70
2022/03/19 02:42:52;;;;;;;53.55;33.53;;;;;;;;;;4955425;29;20126;-72
2022/03/19 02:45:54;;;;;;;52.97;34.10;;;;;;;;;;4955501;29;20039;-71
2022/03/19 02:48:20;;;;;;;46.08;28.77;;;;;;;;;;4955399;29;20035;-71
2022/03/19 02:50:46;;;;;;;39.85;27.42;;;;;;;;;;4953433;29;20142;-71
2022/03/19 02:53:12;;;;;;;42.40;27.65;;;;;;;;;;4955112;29;20417;-70
2022/03/19 02:55:39;;;;;;;43.85;28.30;;;;;;;;;;4959822;28;20105;-72
2022/03/19 02:58:07;;;;;;;41.45;27.92;;;;;;;;;;4962535;29;20027;-72
2022/03/19 03:00:33;;;;;;;41.67;26.92;;;;;;;;;;4954085;29;20110;-70
2022/03/19 03:03:07;;;;;;;49.85;28.13;;;;;;;;;;4961247;29;20031;-72
2022/03/19 03:05:44;;;;;;;40.08;27.13;;;;;;;;;;4950049;29;20039;-70
2022/03/19 03:08:10;;;;;;;49.15;28.40;;;;;;;;;;4954072;29;20075;-72
2022/03/19 03:10:42;;;;;;;48.67;27.70;;;;;;;;;;4962682;29;20090;-72
2022/03/19 03:13:11;;;;;;;44.88;28.48;;;;;;;;;;4957377;29;20271;-72
2022/03/19 03:15:50;;;;;;;;;;;;;;;;;;;;;
2022/03/19 03:18:16;;;;;;;47.45;29.20;;;;;;;;;;4955911;29;20039;-72
2022/03/19 03:20:42;;;;;;;47.80;28.70;;;;;;;;;;4953053;29;20027;-69
2022/03/19 03:23:21;;;;;;;42.65;27.92;;;;;;;;;;4962077;29;20023;-74
2022/03/19 03:25:47;;;;;;;45.75;27.52;;;;;;;;;;4952447;29;20045;-72
2022/03/19 03:28:13;;;;;;;39.58;27.15;;;;;;;;;;4954741;29;20103;-71
2022/03/19 03:30:45;;;;;;;40.72;28.02;;;;;;;;;;4953729;29;20042;-69
2022/03/19 03:33:11;;;;;;;41.40;27.48;;;;;;;;;;4955262;29;20422;-72
2022/03/19 03:35:37;;;;;;;44.05;27.20;;;;;;;;;;4955547;29;20055;-71
2022/03/19 03:38:04;;;;;;;43.72;26.00;;;;;;;;;;4955222;29;20035;-72
2022/03/19 03:40:30;;;;;;;38.63;27.15;;;;;;;;;;4954579;29;20027;-71
2022/03/19 03:43:03;;;;;;;38.67;26.83;;;;;;;;;;4952862;29;20034;-71
2022/03/19 03:45:30;;;;;;;41.60;25.48;;;;;;;;;;4948113;29;20428;-71
2022/03/19 03:48:00;;;;;;;38.25;26.02;;;;;;;;;;4961587;29;20015;-72
2022/03/19 03:50:27;;;;;;;41.13;25.95;;;;;;;;;;4948417;29;20495;-72
2022/03/19 03:52:53;;;;;;;43.60;25.95;;;;;;;;;;4953057;29;20028;-72
2022/03/19 03:55:25;;;;;;;42.53;26.10;;;;;;;;;;4953710;29;20067;-72
2022/03/19 03:57:51;;;;;;;49.35;31.70;;;;;;;;;;4953536;29;20035;-72
2022/03/19 04:00:17;;;;;;;51.42;29.02;;;;;;;;;;4953940;29;20035;-72
2022/03/19 04:02:43;;;;;;;46.95;28.67;;;;;;;;;;4952744;29;20131;-70
2022/03/19 04:05:09;;;;;;;48.00;28.10;;;;;;;;;;4953323;29;20070;-72
2022/03/19 04:07:35;;;;;;;47.85;27.55;;;;;;;;;;4962238;28;20055;-72
2022/03/19 04:10:01;;;;;;;46.35;27.08;;;;;;;;;;4956405;29;20036;-71
2022/03/19 04:12:27;;;;;;;45.42;27.88;;;;;;;;;;4957961;29;20031;-72
2022/03/19 04:14:53;;;;;;;49.13;26.88;;;;;;;;;;4956505;29;20024;-72
2022/03/19 04:17:37;;;;;;;46.20;26.70;;;;;;;;;;4957675;29;20081;-70
2022/03/19 04:20:03;;;;;;;;;;;;;;;;;;4941532;29;20089;-71
2022/03/19 04:22:43;;;;;;;48.53;24.42;;;;;;;;;;4970236;29;20363;-72
2022/03/19 04:25:18;;;;;;;37.90;24.58;;;;;;;;;;4961138;29;20034;-71
2022/03/19 04:27:45;;;;;;;42.90;25.63;;;;;;;;;;4957863;29;20043;-71
2022/03/19 04:30:12;;;;;;;38.05;25.27;;;;;;;;;;4957535;29;20162;-71
2022/03/19 04:32:42;;;;;;;37.28;25.15;;;;;;;;;;4962880;29;20031;-72
2022/03/19 04:38:08;;;;;;;35.85;23.77;;;;;;;;;;4938545;29;20050;-70
2022/03/19 04:40:35;;;;;;;41.13;25.42;;;;;;;;;;4938467;29;20032;-72
2022/03/19 04:43:01;;;;;;;36.92;24.80;;;;;;;;;;4941446;29;20036;-72
2022/03/19 04:45:51;;;;;;;39.30;24.15;;;;;;;;;;4946126;29;20146;-72
2022/03/19 04:48:17;;;;;;;38.13;24.50;;;;;;;;;;4931771;29;20158;-71
2022/03/19 04:50:46;;;;;;;36.88;24.80;;;;;;;;;;4938092;29;20033;-72
2022/03/19 04:53:13;;;;;;;37.30;24.50;;;;;;;;;;4938222;29;20452;-72
2022/03/19 04:55:44;;;;;;;38.58;24.35;;;;;;;;;;4941946;29;20024;-72
2022/03/19 04:58:10;;;;;;;35.97;24.95;;;;;;;;;;4943261;29;20023;-72
2022/03/19 05:00:55;;;;;;;39.50;26.63;;;;;;;;;;4962893;29;20055;-72
2022/03/19 05:03:21;;;;;;;38.63;26.48;;;;;;;;;;4953975;29;20036;-71
2022/03/19 05:05:52;;;;;;;43.83;28.80;;;;;;;;;;4963971;28;20031;-73
2022/03/19 05:08:21;;;;;;;55.50;38.10;;;;;;;;;;4966567;29;20140;-71
2022/03/19 05:13:38;;;;;;;50.55;37.63;;;;;;;;;;4957110;29;20050;-70
2022/03/19 05:16:04;;;;;;;51.65;35.70;;;;;;;;;;4956669;29;20509;-71
2022/03/19 05:18:30;;;;;;;49.60;34.20;;;;;;;;;;4954762;28;20035;-72
2022/03/19 05:20:56;;;;;;;46.90;33.63;;;;;;;;;;4956894;29;20028;-72
2022/03/19 05:23:23;;;;;;;49.40;34.38;;;;;;;;;;4956625;29;20031;-72
2022/03/19 05:25:49;;;;;;;55.13;36.55;;;;;;;;;;4956731;29;20485;-72
2022/03/19 05:28:26;;;;;;;54.40;38.20;;;;;;;;;;4961245;29;20421;-72
2022/03/19 05:30:53;;;;;;;54.60;37.20;;;;;;;;;;4955871;29;20028;-69
2022/03/19 05:33:19;;;;;;;48.85;33.47;;;;;;;;;;4956440;29;20098;-71
2022/03/19 05:35:46;;;;;;;45.42;30.73;;;;;;;;;;4956666;29;20035;-69
2022/03/19 05:38:12;;;;;;;38.35;27.85;;;;;;;;;;4956608;29;20026;-72
2022/03/19 05:40:38;;;;;;;40.03;27.50;;;;;;;;;;4955897;29;20086;-73
2022/03/19 05:43:04;;;;;;;36.22;26.52;;;;;;;;;;4956130;29;20027;-73
2022/03/19 05:45:38;;;;;;;45.30;27.65;;;;;;;;;;4970173;29;20472;-72
2022/03/19 05:48:11;;;;;;;42.17;25.48;;;;;;;;;;4941370;29;20110;-71
2022/03/19 05:50:37;;;;;;;38.60;24.25;;;;;;;;;;4947947;29;20037;-71
2022/03/19 05:53:03;;;;;;;34.78;23.17;;;;;;;;;;4937463;29;20490;-72
2022/03/19 05:55:29;;;;;;;32.50;24.20;;;;;;;;;;4938259;29;20520;-70
2022/03/19 05:57:55;;;;;;;35.80;24.33;;;;;;;;;;4937306;29;20141;-72
2022/03/19 06:00:21;;;;;;;31.05;22.88;;;;;;;;;;4937079;29;20035;-73
2022/03/19 06:02:48;;;;;;;30.58;23.40;;;;;;;;;;4939720;29;20028;-71
2022/03/19 06:05:14;;;;;;;29.33;22.83;;;;;;;;;;4954964;29;20082;-72
2022/03/19 06:07:40;;;;;;;28.48;21.40;;;;;;;;;;4935950;29;20098;-72
2022/03/19 06:10:06;;;;;;;29.45;22.40;;;;;;;;;;4951559;29;20055;-71
2022/03/19 06:12:33;;;;;;;29.27;22.83;;;;;;;;;;4953840;29;20374;-72
2022/03/19 06:17:44;;;;;;;30.25;23.85;;;;;;;;;;4958507;28;20043;-75
2022/03/19 06:20:22;;;;;;;30.48;24.48;;;;;;;;;;4935285;29;20039;-72
2022/03/19 06:22:48;;;;;;;29.70;23.33;;;;;;;;;;4937465;29;20058;-72
2022/03/19 06:25:15;;;;;;;29.60;22.83;;;;;;;;;;4940660;29;20418;-72
2022/03/19 06:27:41;;;;;;;27.70;23.90;;;;;;;;;;4942135;29;20030;-72
2022/03/19 06:30:08;;;;;;;28.23;22.83;;;;;;;;;;4942914;28;20031;-72
2022/03/19 06:32:36;;;;;;;27.10;24.15;;;;;;;;;;4942995;29;20015;-71
2022/03/19 06:35:05;;;;;;;48.15;36.97;;;;;;;;;;4953958;29;20053;-76
2022/03/19 06:37:31;;;;;;;40.67;35.33;;;;;;;;;;4937556;29;20034;-74
2022/03/19 06:40:03;;;;;;;40.30;31.80;;;;;;;;;;4951721;29;20031;-73
2022/03/19 06:42:29;;;;;;;29.35;24.48;;;;;;;;;;4939832;29;20031;-72
2022/03/19 06:44:55;;;;;;;29.90;24.30;;;;;;;;;;4939730;29;20050;-72
2022/03/19 06:47:21;;;;;;;27.05;23.13;;;;;;;;;;4950880;29;20031;-76
2022/03/19 06:49:50;;;;;;;29.05;22.77;;;;;;;;;;4937324;29;20049;-76
2022/03/19 06:52:16;;;;;;;34.25;23.90;;;;;;;;;;4951366;29;20082;-76
2022/03/19 06:54:42;;;;;;;29.20;24.50;;;;;;;;;;4945772;29;20098;-78
2022/03/19 06:57:08;;;;;;;28.50;21.85;;;;;;;;;;4943880;29;20066;-78
2022/03/19 06:59:34;;;;;;;24.85;20.80;;;;;;;;;;4939651;29;20034;-76
2022/03/19 07:02:00;;;;;;;36.08;25.35;;;;;;;;;;4951239;29;20455;-74
2022/03/19 07:04:26;;;;;;;30.50;25.45;;;;;;;;;;4952091;29;20086;-76
2022/03/19 07:06:55;;;;;;;42.03;27.23;;;;;;;;;;4949980;29;20073;-94
2022/03/19 07:09:21;;;;;;;38.30;27.33;;;;;;;;;;4944920;29;20024;-89
2022/03/19 07:12:10;;;;;;;36.95;26.92;;;;;;;;;;4957537;29;20027;-95
2022/03/19 07:14:42;;;;;;;36.70;27.25;;;;;;;;;;4937681;29;20389;-72
2022/03/19 07:17:14;;;;;;;32.75;25.30;;;;;;;;;;4945635;29;20044;-91
2022/03/19 07:19:40;;;;;;;34.08;25.85;;;;;;;;;;4946286;29;20175;-87
2022/03/19 07:22:09;;;;;;;36.45;27.95;;;;;;;;;;4929808;29;20044;-89
2022/03/19 07:24:38;;;;;;;40.97;32.58;;;;;;;;;;4940061;29;20031;-77
2022/03/19 07:27:07;;;;;;;42.38;33.42;;;;;;;;;;4937212;29;20043;-82
2022/03/19 07:29:35;;;;;;;40.65;30.15;;;;;;;;;;4961730;28;20032;-83
2022/03/19 07:32:02;;;;;;;35.88;26.50;;;;;;;;;;4954833;29;20031;-89
2022/03/19 07:34:31;;;;;;;34.22;27.40;;;;;;;;;;4944995;29;20035;-83
2022/03/19 07:36:57;;;;;;;37.90;30.20;;;;;;;;;;4940397;29;20118;-81
2022/03/19 07:39:23;;;;;;;35.45;27.95;;;;;;;;;;4937328;29;20528;-76
2022/03/19 07:41:50;;;;;;;31.48;25.77;;;;;;;;;;4946265;29;20061;-76
2022/03/19 07:44:19;;;;;;;35.05;28.02;;;;;;;;;;4945861;29;20407;-80
2022/03/19 07:46:46;;;;;;;31.77;25.75;;;;;;;;;;4949611;29;20036;-88
2022/03/19 07:49:26;;;;;;;34.20;27.95;;;;;;;;;;4938027;29;20063;-79
2022/03/19 07:51:55;;;;;;;40.63;31.40;;;;;;;;;;4938474;29;20032;-72
2022/03/19 07:57:19;;;;;;;33.28;25.73;;;;;;;;;;4943297;29;20042;-77
2022/03/19 07:59:51;;;;;;;30.92;25.38;;;;;;;;;;4960503;28;20036;-75
2022/03/19 08:02:17;;;;;;;30.55;24.08;;;;;;;;;;4947917;29;20019;-86
2022/03/19 08:04:44;;;;;;;29.33;24.77;;;;;;;;;;4947549;29;20031;-76
2022/03/19 08:07:10;;;;;;;31.35;23.38;;;;;;;;;;4947215;29;20055;-82
2022/03/19 08:09:39;;;;;;;27.90;22.67;;;;;;;;;;4952868;29;20027;-79
2022/03/19 08:12:06;;;;;;;31.10;23.55;;;;;;;;;;4948346;29;20043;-82
2022/03/19 08:14:32;;;;;;;28.70;22.63;;;;;;;;;;4946356;29;20549;-88
2022/03/19 08:16:58;;;;;;;31.98;24.42;;;;;;;;;;4944258;29;20103;-81
2022/03/19 08:19:25;;;;;;;31.50;23.98;;;;;;;;;;4953653;29;20106;-76
2022/03/19 08:21:52;;;;;;;27.52;23.85;;;;;;;;;;4954698;29;20477;-76
2022/03/19 08:24:19;;;;;;;31.27;25.73;;;;;;;;;;4954435;29;20031;-77
2022/03/19 08:26:46;;;;;;;33.22;24.80;;;;;;;;;;4951201;29;20393;-76
2022/03/19 08:29:12;;;;;;;31.20;24.08;;;;;;;;;;4954422;29;20024;-76
2022/03/19 08:31:39;;;;;;;30.83;24.23;;;;;;;;;;4952441;29;20039;-78
2022/03/19 08:34:05;;;;;;;29.73;24.27;;;;;;;;;;4954506;29;20034;-81
2022/03/19 08:36:34;;;;;;;32.55;25.40;;;;;;;;;;4954494;29;20034;-76
2022/03/19 08:41:45;;;;;;;32.28;24.27;;;;;;;;;;4952719;29;20054;-74
2022/03/19 08:44:11;;;;;;;30.83;24.15;;;;;;;;;;4954533;29;20102;-76
2022/03/19 08:46:37;;;;;;;34.63;24.83;;;;;;;;;;4949815;29;20466;-75
2022/03/19 08:49:04;;;;;;;33.50;23.45;;;;;;;;;;4954385;29;20102;-77
2022/03/19 08:51:42;;;;;;;33.33;24.13;;;;;;;;;;4954381;29;20027;-76
2022/03/19 08:54:09;;;;;;;28.42;22.92;;;;;;;;;;4941917;28;20016;-76
2022/03/19 08:56:36;;;;;;;32.85;24.85;;;;;;;;;;4954695;29;20031;-75
2022/03/19 08:59:02;;;;;;;33.92;26.30;;;;;;;;;;4960457;29;20023;-75
2022/03/19 09:01:29;;;;;;;36.65;29.00;;;;;;;;;;4958771;29;20031;-75
2022/03/19 09:03:57;;;;;;;35.28;27.98;;;;;;;;;;4960767;29;20027;-74
2022/03/19 09:06:23;;;;;;;36.10;26.60;;;;;;;;;;4959352;28;20076;-74
2022/03/19 09:08:49;;;;;;;36.38;27.30;;;;;;;;;;4958760;29;20493;-74
2022/03/19 09:11:19;;;;;;;38.22;28.15;;;;;;;;;;4958840;29;20090;-74
2022/03/19 09:13:48;;;;;;;41.95;28.95;;;;;;;;;;4959529;29;20444;-74
2022/03/19 09:16:15;;;;;;;33.20;26.00;;;;;;;;;;4959800;29;20031;-74
2022/03/19 09:18:41;;;;;;;36.20;27.33;;;;;;;;;;4958214;29;20490;-74
2022/03/19 09:21:07;;;;;;;34.63;25.42;;;;;;;;;;4958382;29;20038;-74
2022/03/19 09:23:33;;;;;;;39.65;26.33;;;;;;;;;;4961549;29;20073;-74
2022/03/19 09:25:59;;;;;;;35.83;27.15;;;;;;;;;;4958547;29;20035;-73
2022/03/19 09:28:25;;;;;;;36.70;25.23;;;;;;;;;;4942084;29;20032;-75
2022/03/19 09:30:52;;;;;;;34.88;25.15;;;;;;;;;;4942157;29;20019;-73
2022/03/19 09:33:18;;;;;;;27.60;20.08;;;;;;;;;;4932129;29;20031;-73
2022/03/19 09:35:48;;;;;;;31.17;22.55;;;230.50;1689.60;;;;;;4949454;29;20159;-76
2022/03/19 09:38:14;;;;;;;28.67;21.23;;;230.60;1792.00;;;;;;4938372;29;20023;-73
2022/03/19 09:40:41;;;;;;;33.75;23.60;;;230.80;1740.80;;;;;;4943494;29;20036;-74
2022/03/19 09:43:07;;;;;;;29.58;21.60;;;230.70;1792.00;;;;;;4939152;29;20079;-74
2022/03/19 09:45:34;;;;;;;34.42;24.10;;;230.50;1792.00;;;;;;4940136;29;20430;-75
2022/03/19 09:48:00;;;;;;;34.33;23.98;;;230.70;1766.40;;;;;;4938761;29;20059;-73
2022/03/19 09:50:26;;;;;;;41.10;22.83;;;230.60;1766.40;;;;;;4940282;29;20054;-76
2022/03/19 09:52:54;;;;;;;33.35;23.00;;;230.60;1792.00;;;;;;4952038;29;20483;-74
2022/03/19 09:55:21;;;;;;;30.52;23.88;;;230.50;1817.60;;;;;;4952829;29;20027;-72
2022/03/19 09:57:47;;;;;;;29.48;21.48;;;230.50;1817.60;;;;;;4961579;28;20058;-74
2022/03/19 10:00:14;;;;;;;31.75;22.30;;;230.50;1792.00;;;;;;4957621;29;20023;-73
2022/03/19 10:03:02;;;;;;;36.25;24.55;;;230.40;1843.20;;;;;;4959650;29;20486;-73
2022/03/19 10:08:36;;;;;;;33.33;22.17;;;230.60;1766.40;;;;;;4945899;29;20455;-73
2022/03/19 10:11:03;;;;;;;32.72;22.17;;;230.70;1817.60;;;;;;4938212;29;20092;-74
2022/03/19 10:13:29;;;;;;;30.55;22.08;;;230.70;1715.20;;;;;;4945470;29;20019;-72
2022/03/19 10:15:54;;;;;;;29.85;23.10;;;230.60;1740.80;;;;;;4957435;29;20027;-72
2022/03/19 10:18:30;;;;;;;27.15;19.20;;;230.60;1740.80;;;;;;4955917;29;20377;-72
2022/03/19 10:21:13;;;;;;;27.27;19.35;;;230.90;1664.00;;;;;;4938970;29;20019;-72
2022/03/19 10:23:39;;;;;;;32.57;22.27;;;230.80;1638.40;;;;;;4954077;29;20026;-73
2022/03/19 10:26:06;;;;;;;28.45;22.33;;;231.10;1715.20;;;;;;4958514;29;20648;-74
2022/03/19 10:28:34;;;;;;;32.88;22.05;;;230.70;1664.00;;;;;;4942769;29;20027;-71
2022/03/19 10:31:00;;;;;;;30.10;22.05;;;230.90;1664.00;;;;;;4956846;29;20027;-74
2022/03/19 10:33:33;;;;;;;28.95;20.40;;;230.90;1664.00;;;;;;4955320;29;20477;-74
2022/03/19 10:36:12;;;;;;;30.02;21.67;;;230.90;1689.60;;;;;;4956253;29;20031;-71
2022/03/19 10:38:41;;;;;;;30.70;21.13;;;231.10;1664.00;;;;;;4938212;29;20110;-72
2022/03/19 10:41:07;;;;;;;29.77;21.38;;;231.20;1612.80;;;;;;4954858;29;20082;-72
2022/03/19 10:43:34;;;;;;;28.92;20.33;;;256.10;1638.40;;;;;;4955697;29;20035;-71
2022/03/19 10:46:02;;;;;;;40.70;20.40;;;231.20;1612.80;;;;;;4955579;29;20035;-73
2022/03/19 10:48:31;;;;;;;28.63;19.67;;;256.00;1612.80;;;;;;4951059;29;20024;-73
2022/03/19 10:50:57;;;;;;;27.65;19.98;;;256.00;1587.20;;;;;;4937286;29;20059;-73
2022/03/19 10:53:24;;;;;;;42.85;18.52;;;256.20;1587.20;;;;;;4938100;29;20023;-73
2022/03/19 10:55:51;;;;;;;27.75;18.95;;;256.30;1561.60;;;;;;4938670;29;20032;-73
2022/03/19 10:58:17;;;;;;;30.95;21.02;;;256.40;1536.00;;;;;;4940318;29;20539;-71
2022/03/19 11:00:48;;;;;;;25.65;18.45;;;256.10;1612.80;;;;;;4956611;29;20131;-72
2022/03/19 11:03:20;;;;;;;27.10;19.13;;;256.30;1536.00;;;;;;4956701;29;20020;-72
2022/03/19 11:05:46;;;;;;;27.83;18.73;;;256.20;1536.00;;;;;;4957089;29;20385;-72
2022/03/19 11:08:16;;;;;;;24.88;17.60;;;256.30;1561.60;;;;;;4956393;29;20122;-74
2022/03/19 11:10:43;;;;;;;21.27;16.63;;;256.50;1510.40;;;;;;4955470;29;20027;-74
2022/03/19 11:13:12;;;;;;;22.48;18.13;;;;;;;;;;4958798;29;20023;-72
2022/03/19 11:15:40;;;;;;;24.75;17.45;;;;;;;;;;4957182;28;20055;-72
2022/03/19 11:18:07;;;;;;;26.65;18.48;;;;;;;;;;4949308;29;20031;-72
2022/03/19 11:20:33;;;;;;;28.10;19.02;;;;;;;;;;4957145;29;20106;-73
2022/03/19 11:23:01;;;;;;;28.35;18.48;;;;;;;;;;4949879;29;20043;-75
2022/03/19 11:25:27;;;;;;;23.77;18.10;;;;;;;;;;4938303;29;20028;-72
2022/03/19 11:28:06;;;;;;;23.95;17.38;;;;;;;;;;4944327;29;20036;-74
2022/03/19 11:30:37;;;;;;;24.05;17.05;;;;;;;;;;4948736;29;20494;-72
2022/03/19 11:33:08;;;;;;;20.45;14.30;;;;;;;;;;4958173;29;20026;-74
2022/03/19 11:35:36;;;;;;;23.00;14.85;;;;;;;;;;4944844;29;20030;-73
2022/03/19 11:38:05;;;;;;;19.58;15.20;;;;;;;;;;4965754;29;20023;-77
2022/03/19 11:40:36;;;;;;;22.40;14.23;;;;;;;;;;4943102;29;20036;-76
2022/03/19 11:43:07;;;;;;;23.23;15.55;;;;;;;;;;4944757;29;20063;-78
2022/03/19 11:45:53;;;;;;;19.38;14.35;;;;;;;;;;4951298;29;20044;-75
2022/03/19 11:48:38;;;;;;;20.77;15.50;;;;;;;;;;4961688;29;20066;-74
2022/03/19 11:51:17;;;;;;;20.25;14.98;;;;;;;;;;4947454;29;20031;-74
2022/03/19 11:53:53;;;;;;;17.80;12.48;;;;;;;;;;4964353;28;20082;-75
2022/03/19 11:56:34;;;;;;;18.70;12.40;;;;;;;;;;4961276;29;20031;-78
2022/03/19 11:59:04;;;;;;;22.55;15.02;;;;;;;;;;4956086;29;20043;-76
2022/03/19 12:01:55;;;;;;;26.88;18.33;;;;;;;;;;4957518;29;20043;-72
2022/03/19 12:04:22;;;;;;;19.30;13.23;;;;;;;;;;4943387;29;20023;-72
2022/03/19 12:06:55;;;;;;;19.30;13.98;;;;;;;;;;4945631;29;20059;-72
2022/03/19 12:09:34;;;;;;;33.58;14.48;;;;;;;;;;4956894;28;20533;-71
2022/03/19 12:12:13;;;;;;;17.45;12.23;;;;;;;;;;4937474;29;20047;-71
2022/03/19 12:14:40;;;;;;;17.02;12.80;;;;;;;;;;4947612;29;20448;-72
2022/03/19 12:17:20;;;;;;;18.77;12.80;;;;;;;;;;4945608;29;20154;-74
2022/03/19 12:19:51;;;;;;;20.73;13.68;;;;;;;;;;4956995;28;20075;-72
2022/03/19 12:22:36;;;;;;;23.48;13.38;;;;;;;;;;4941420;29;20524;-74
2022/03/19 12:25:02;;;;;;;19.25;13.50;;;;;;;;;;4945458;29;20019;-75
2022/03/19 12:27:29;;;;;;;18.85;13.02;;;;;;;;;;4954939;28;20035;-75
2022/03/19 12:29:58;;;;;;;19.05;14.25;;;;;;;;;;4958592;29;20024;-74
2022/03/19 12:32:24;;;;;;;19.48;14.93;;;;;;;;;;4958747;29;20106;-74
2022/03/19 12:34:57;;;;;;;20.35;14.52;;;;;;;;;;4956718;29;20035;-74
2022/03/19 12:37:24;;;;;;;;;;;;;;;;;;4959291;29;20031;-74
2022/03/19 12:40:00;;;;;;;26.30;14.63;;;;;;;;;;4958934;29;20449;-74
2022/03/19 12:42:32;;;;;;;22.38;13.93;;;;;;;;;;4961557;29;20051;-75
2022/03/19 12:45:03;;;;;;;20.65;15.02;;;;;;;;;;4959178;29;20114;-74
2022/03/19 12:47:29;;;;;;;22.80;15.70;;;;;;;;;;4956270;29;20042;-74
2022/03/19 12:49:56;;;;;;;21.98;14.98;;;;;;;;;;4957393;29;20385;-74
2022/03/19 12:52:22;;;;;;;23.73;16.42;;;;;;;;;;4954206;29;20123;-74
2022/03/19 12:54:55;;;;;;;24.50;15.77;;;;;;;;;;4958322;29;20024;-74
2022/03/19 12:57:24;;;;;;;23.17;15.15;;;;;;;;;;4957674;29;20023;-75
2022/03/19 12:59:51;;;;;;;24.35;18.85;;;;;;;;;;4958167;29;20035;-74
2022/03/19 13:02:17;;;;;;;28.13;17.27;;;;;;;;;;4957786;29;20019;-73
2022/03/19 13:04:44;;;;;;;25.13;17.00;;;;;;;;;;4958143;29;20031;-74
2022/03/19 13:07:12;;;;;;;25.42;16.38;;;;;;;;;;4956324;28;20043;-75
2022/03/19 13:09:39;;;;;;;25.33;17.00;;;;;;;;;;4958295;29;20107;-74
2022/03/19 13:12:11;;;;;;;35.05;20.50;;;;;;;;;;4957936;29;20063;-74
2022/03/19 13:14:37;;;;;;;24.92;15.88;;;;;;;;;;4957862;29;20081;-73
2022/03/19 13:17:04;;;;;;;48.55;19.02;;;;;;;;;;4948549;29;20074;-73
2022/03/19 13:19:34;;;;;;;24.42;15.05;;;;;;;;;;4942939;29;20049;-73
2022/03/19 13:22:01;;;;;;;28.83;17.77;;;;;;;;;;4955526;29;20138;-74
2022/03/19 13:24:28;;;;;;;28.92;16.63;;;;;;;;;;4955980;29;20385;-74
2022/03/19 13:26:57;;;;;;;31.25;18.45;;;;;;;;;;4962648;29;20129;-75
2022/03/19 13:29:35;;;;;;;19.45;13.60;;;;;;;;;;4954492;29;20022;-74
2022/03/19 13:32:03;;;;;;;22.02;13.85;;;;;;;;;;4956459;29;20035;-74
2022/03/19 13:34:29;;;;;;;18.05;11.77;;;;;;;;;;4952565;29;20176;-74
2022/03/19 13:37:07;;;;;;;18.88;11.25;;;;;;;;;;4956571;29;20020;-73
2022/03/19 13:39:36;;;;;;;15.15;10.13;;;;;;;;;;4956447;28;20024;-73
2022/03/19 13:42:05;;;;;;;17.67;11.82;;;;;;;;;;4956524;29;20460;-73
2022/03/19 13:44:52;;;;;;;18.05;13.00;;;;;;;;;;4962771;29;20019;-73
2022/03/19 13:47:19;;;;;;;14.88;10.48;;;;;;;;;;4943614;29;20047;-73
2022/03/19 13:49:47;;;;;;;14.93;10.30;;;;;;;;;;4955891;29;20106;-74
2022/03/19 13:52:32;;;;;;;15.45;10.48;;;;;;;;;;4952332;29;20380;-73
2022/03/19 13:54:59;;;;;;;17.77;10.68;;;;;;;;;;4957362;29;20027;-73
2022/03/19 13:57:39;;;;;;;17.95;10.65;;;;;;;;;;4957225;29;20482;-73
2022/03/19 14:00:12;;;;;;;22.77;10.98;;;;;;;;;;4945015;29;20125;-74
2022/03/19 14:02:39;;;;;;;16.20;9.18;;;;;;;;;;4957385;29;20029;-74
2022/03/19 14:05:06;;;;;;;15.98;9.88;;;;;;;;;;4951287;29;20051;-74
2022/03/19 14:07:33;;;;;;;17.20;10.82;;;;;;;;;;4949652;29;20057;-73
2022/03/19 14:09:59;;;;;;;21.58;13.05;;;;;;;;;;4953849;29;20126;-74
2022/03/19 14:12:36;;;;;;;15.23;10.20;;;;;;;;;;4937677;29;20451;-74
2022/03/19 14:15:02;;;;;;;15.85;9.68;;;;;;;;;;4937970;29;20024;-73
2022/03/19 14:17:43;;;;;;;13.63;9.32;;;;;;;;;;4937977;29;20030;-73
2022/03/19 14:20:10;;;;;;;12.68;8.30;;;;;;;;;;4937825;29;20083;-73
2022/03/19 14:22:36;;;;;;;16.58;9.30;;;;;;;;;;4944065;29;20023;-74
2022/03/19 14:25:02;;;;;;;12.77;9.23;;;;;;;;;;4956939;29;20023;-74
2022/03/19 14:27:28;;;;;;;13.68;9.90;;;;;;;;;;4956475;29;20544;-74
2022/03/19 14:29:54;;;;;;;17.42;9.27;;;;;;;;;;4956483;29;20489;-73